sensor_id;sensor_type;location;lat;lon;timestamp;pressure;altitude;pressure_sealevel;temperature;humidity
10652;BME280;5374;42.742;23.266;2024-01-25T08:06:33;95909.38;;;8.16;79.59
10652;BME280;5374;42.742;23.266;2024-01-25T08:11:57;95906.38;;;8.13;77.21
10652;BME280;5374;42.742;23.266;2024-01-25T08:14:44;95869.00;;;7.91;76.04
10652;BME280;5374;42.742;23.266;2024-01-25T08:17:31;95882.22;;;8.09;76.09
10652;BME280;5374;42.742;23.266;2024-01-25T08:20:18;95936.25;;;8.50;75.07
10652;BME280;5374;42.742;23.266;2024-01-25T08:23:07;95933.31;;;8.58;75.04
10652;BME280;5374;42.742;23.266;2024-01-25T08:25:54;95854.00;;;8.03;75.24
10652;BME280;5374;42.742;23.266;2024-01-25T08:28:42;95939.66;;;8.69;73.41
10652;BME280;5374;42.742;23.266;2024-01-25T08:31:30;95899.88;;;8.45;73.56
10652;BME280;5374;42.742;23.266;2024-01-25T08:34:17;95898.41;;;8.49;73.28
10652;BME280;5374;42.742;23.266;2024-01-25T08:37:04;95924.94;;;8.73;72.80
10652;BME280;5374;42.742;23.266;2024-01-25T08:39:52;95930.47;;;8.83;70.97
10652;BME280;5374;42.742;23.266;2024-01-25T08:42:39;95934.41;;;8.80;71.62
10652;BME280;5374;42.742;23.266;2024-01-25T08:45:27;95941.56;;;8.91;71.38
10652;BME280;5374;42.742;23.266;2024-01-25T08:48:14;95939.19;;;9.02;70.77
10652;BME280;5374;42.742;23.266;2024-01-25T08:51:01;95940.47;;;9.11;70.17
10652;BME280;5374;42.742;23.266;2024-01-25T08:53:48;95963.19;;;9.18;69.30
10652;BME280;5374;42.742;23.266;2024-01-25T08:56:38;95877.59;;;8.65;69.55
10652;BME280;5374;42.742;23.266;2024-01-25T08:59:25;95931.13;;;9.08;69.20
10652;BME280;5374;42.742;23.266;2024-01-25T09:02:15;95933.44;;;9.28;69.37
10652;BME280;5374;42.742;23.266;2024-01-25T09:05:02;95955.16;;;9.48;68.19
10652;BME280;5374;42.742;23.266;2024-01-25T09:07:50;95949.72;;;9.43;67.93
10652;BME280;5374;42.742;23.266;2024-01-25T09:10:37;95952.72;;;9.47;68.20
10652;BME280;5374;42.742;23.266;2024-01-25T09:13:26;95955.94;;;9.49;67.23
10652;BME280;5374;42.742;23.266;2024-01-25T09:16:13;95938.31;;;9.43;68.08
10652;BME280;5374;42.742;23.266;2024-01-25T09:19:00;95942.94;;;9.47;68.24
10652;BME280;5374;42.742;23.266;2024-01-25T09:21:47;95928.88;;;9.47;67.42
10652;BME280;5374;42.742;23.266;2024-01-25T09:24:34;95946.16;;;9.61;67.51
10652;BME280;5374;42.742;23.266;2024-01-25T09:27:21;95941.31;;;9.70;67.11
10652;BME280;5374;42.742;23.266;2024-01-25T09:30:11;95931.53;;;9.70;67.58
10652;BME280;5374;42.742;23.266;2024-01-25T09:32:58;95935.22;;;9.69;67.69
10652;BME280;5374;42.742;23.266;2024-01-25T09:35:46;95924.25;;;9.66;67.68
10652;BME280;5374;42.742;23.266;2024-01-25T09:38:33;95927.03;;;9.71;68.07
10652;BME280;5374;42.742;23.266;2024-01-25T09:41:20;95920.56;;;9.67;68.14
10652;BME280;5374;42.742;23.266;2024-01-25T09:44:09;95917.69;;;9.68;68.39
10652;BME280;5374;42.742;23.266;2024-01-25T09:46:58;95894.41;;;9.47;68.31
10652;BME280;5374;42.742;23.266;2024-01-25T09:49:45;95891.06;;;9.40;69.02
10652;BME280;5374;42.742;23.266;2024-01-25T09:52:33;95885.88;;;9.33;69.31
10652;BME280;5374;42.742;23.266;2024-01-25T09:55:25;95900.03;;;9.27;69.61
10652;BME280;5374;42.742;23.266;2024-01-25T09:58:12;95892.78;;;9.22;70.30
10652;BME280;5374;42.742;23.266;2024-01-25T10:01:00;95860.84;;;8.94;70.79
10652;BME280;5374;42.742;23.266;2024-01-25T10:03:49;95869.84;;;9.05;71.25
10652;BME280;5374;42.742;23.266;2024-01-25T10:06:36;95839.91;;;8.93;71.28
10652;BME280;5374;42.742;23.266;2024-01-25T10:09:23;95864.78;;;9.15;71.05
10652;BME280;5374;42.742;23.266;2024-01-25T10:12:10;95827.94;;;9.25;70.34
10652;BME280;5374;42.742;23.266;2024-01-25T10:14:57;95784.97;;;9.00;70.17
10652;BME280;5374;42.742;23.266;2024-01-25T10:17:45;95860.84;;;9.52;69.63
10652;BME280;5374;42.742;23.266;2024-01-25T10:20:34;95848.75;;;9.68;69.12
10652;BME280;5374;42.742;23.266;2024-01-25T10:23:21;95820.41;;;9.57;69.26
10652;BME280;5374;42.742;23.266;2024-01-25T10:26:09;95801.88;;;9.45;69.71
10652;BME280;5374;42.742;23.266;2024-01-25T10:28:56;95856.47;;;9.70;70.27
10652;BME280;5374;42.742;23.266;2024-01-25T10:31:45;95850.13;;;9.71;70.90
10652;BME280;5374;42.742;23.266;2024-01-25T10:34:33;95857.25;;;9.82;70.80
10652;BME280;5374;42.742;23.266;2024-01-25T10:37:24;95845.38;;;9.73;71.46
10652;BME280;5374;42.742;23.266;2024-01-25T10:40:13;95762.50;;;9.25;70.81
10652;BME280;5374;42.742;23.266;2024-01-25T10:43:00;95844.22;;;9.80;70.92
10652;BME280;5374;42.742;23.266;2024-01-25T10:45:47;95815.19;;;9.62;70.53
10652;BME280;5374;42.742;23.266;2024-01-25T10:48:39;95829.47;;;9.73;70.47
10652;BME280;5374;42.742;23.266;2024-01-25T10:51:27;95823.47;;;9.77;71.60
10652;BME280;5374;42.742;23.266;2024-01-25T10:54:16;95816.75;;;9.86;71.79
10652;BME280;5374;42.742;23.266;2024-01-25T10:57:05;95816.53;;;9.88;71.36
10652;BME280;5374;42.742;23.266;2024-01-25T10:59:52;95821.19;;;9.98;71.34
10652;BME280;5374;42.742;23.266;2024-01-25T11:02:40;95816.91;;;10.08;70.84
10652;BME280;5374;42.742;23.266;2024-01-25T11:05:27;95796.91;;;10.17;70.03
10652;BME280;5374;42.742;23.266;2024-01-25T11:08:18;95794.63;;;10.09;67.99
10652;BME280;5374;42.742;23.266;2024-01-25T11:11:08;95764.69;;;9.97;68.07
10652;BME280;5374;42.742;23.266;2024-01-25T11:13:56;95783.63;;;10.17;66.35
10652;BME280;5374;42.742;23.266;2024-01-25T11:16:43;95714.72;;;9.77;65.44
10652;BME280;5374;42.742;23.266;2024-01-25T11:19:33;95775.59;;;10.12;65.95
10652;BME280;5374;42.742;23.266;2024-01-25T11:22:20;95776.72;;;10.16;66.18
10652;BME280;5374;42.742;23.266;2024-01-25T11:25:12;95778.75;;;9.98;66.38
10652;BME280;5374;42.742;23.266;2024-01-25T11:28:05;95771.13;;;9.73;66.16
10652;BME280;5374;42.742;23.266;2024-01-25T11:30:53;95765.06;;;9.49;66.27
10652;BME280;5374;42.742;23.266;2024-01-25T11:33:40;95766.66;;;9.21;66.67
10652;BME280;5374;42.742;23.266;2024-01-25T11:36:28;95763.88;;;9.05;68.30
10652;BME280;5374;42.742;23.266;2024-01-25T11:39:16;95768.63;;;9.03;67.66
10652;BME280;5374;42.742;23.266;2024-01-25T11:42:04;95757.56;;;8.82;67.33
10652;BME280;5374;42.742;23.266;2024-01-25T11:44:53;95780.38;;;8.95;67.71
10652;BME280;5374;42.742;23.266;2024-01-25T11:47:41;95780.03;;;8.91;68.65
10652;BME280;5374;42.742;23.266;2024-01-25T11:50:29;95786.47;;;8.96;68.94
10652;BME280;5374;42.742;23.266;2024-01-25T11:53:16;95779.44;;;8.89;69.99
10652;BME280;5374;42.742;23.266;2024-01-25T11:56:04;95762.75;;;8.77;70.65
10652;BME280;5374;42.742;23.266;2024-01-25T11:58:54;95762.16;;;8.87;70.90
10652;BME280;5374;42.742;23.266;2024-01-25T12:01:44;95775.75;;;8.90;71.13
10652;BME280;5374;42.742;23.266;2024-01-25T12:04:31;95768.28;;;8.87;71.59
10652;BME280;5374;42.742;23.266;2024-01-25T12:07:19;95780.50;;;8.77;72.88
10652;BME280;5374;42.742;23.266;2024-01-25T12:10:07;95769.66;;;8.67;73.20
10652;BME280;5374;42.742;23.266;2024-01-25T12:12:55;95709.16;;;8.17;73.70
10652;BME280;5374;42.742;23.266;2024-01-25T12:15:43;95754.81;;;8.54;73.69
10652;BME280;5374;42.742;23.266;2024-01-25T12:18:31;95753.31;;;8.58;73.43
10652;BME280;5374;42.742;23.266;2024-01-25T12:21:20;95743.63;;;8.64;73.37
10652;BME280;5374;42.742;23.266;2024-01-25T12:24:08;95740.88;;;8.70;73.25
10652;BME280;5374;42.742;23.266;2024-01-25T12:26:56;95743.28;;;8.95;72.36
10652;BME280;5374;42.742;23.266;2024-01-25T12:29:43;95730.13;;;9.12;72.20
10652;BME280;5374;42.742;23.266;2024-01-25T12:32:30;95712.97;;;9.26;71.10
10652;BME280;5374;42.742;23.266;2024-01-25T12:35:19;95737.41;;;9.56;70.67
10652;BME280;5374;42.742;23.266;2024-01-25T12:38:07;95717.44;;;9.66;69.95
10652;BME280;5374;42.742;23.266;2024-01-25T12:40:55;95691.53;;;9.56;68.33
10652;BME280;5374;42.742;23.266;2024-01-25T12:43:42;95692.00;;;9.81;68.23
10652;BME280;5374;42.742;23.266;2024-01-25T12:46:29;95705.75;;;9.95;65.92
10652;BME280;5374;42.742;23.266;2024-01-25T12:49:17;95685.72;;;10.16;65.67
10652;BME280;5374;42.742;23.266;2024-01-25T12:52:09;95688.53;;;10.26;63.83
10652;BME280;5374;42.742;23.266;2024-01-25T12:54:56;95647.47;;;10.00;62.91
10652;BME280;5374;42.742;23.266;2024-01-25T12:57:43;95668.84;;;10.39;63.66
10652;BME280;5374;42.742;23.266;2024-01-25T13:00:30;95674.56;;;10.31;64.20
10652;BME280;5374;42.742;23.266;2024-01-25T13:03:18;95658.72;;;10.36;64.46
10652;BME280;5374;42.742;23.266;2024-01-25T13:06:05;95648.41;;;10.22;63.54
10652;BME280;5374;42.742;23.266;2024-01-25T13:08:54;95669.81;;;10.33;63.41
10652;BME280;5374;42.742;23.266;2024-01-25T13:11:41;95665.31;;;10.33;63.14
10652;BME280;5374;42.742;23.266;2024-01-25T13:14:28;95670.44;;;10.23;64.81
10652;BME280;5374;42.742;23.266;2024-01-25T13:17:15;95677.97;;;10.14;65.43
10652;BME280;5374;42.742;23.266;2024-01-25T13:20:03;95693.81;;;10.09;65.33
10652;BME280;5374;42.742;23.266;2024-01-25T13:22:52;95692.91;;;10.04;65.65
10652;BME280;5374;42.742;23.266;2024-01-25T13:25:40;95692.38;;;9.73;69.10
10652;BME280;5374;42.742;23.266;2024-01-25T13:28:27;95692.59;;;9.72;67.80
10652;BME280;5374;42.742;23.266;2024-01-25T13:31:15;95661.28;;;9.40;68.17
10652;BME280;5374;42.742;23.266;2024-01-25T13:34:02;95667.16;;;9.42;69.01
10652;BME280;5374;42.742;23.266;2024-01-25T13:36:49;95671.22;;;9.33;69.89
10652;BME280;5374;42.742;23.266;2024-01-25T13:39:37;95662.50;;;9.21;68.91
10652;BME280;5374;42.742;23.266;2024-01-25T13:42:25;95663.22;;;9.16;69.60
10652;BME280;5374;42.742;23.266;2024-01-25T13:45:12;95651.81;;;9.04;69.19
10652;BME280;5374;42.742;23.266;2024-01-25T13:47:59;95665.09;;;8.93;69.95
10652;BME280;5374;42.742;23.266;2024-01-25T13:50:46;95625.00;;;8.49;71.32
10652;BME280;5374;42.742;23.266;2024-01-25T13:53:34;95615.44;;;8.24;71.12
10652;BME280;5374;42.742;23.266;2024-01-25T13:56:22;95613.34;;;8.15;72.17
10652;BME280;5374;42.742;23.266;2024-01-25T13:59:11;95662.28;;;8.47;72.32
10652;BME280;5374;42.742;23.266;2024-01-25T14:01:58;95684.25;;;8.48;72.89
10652;BME280;5374;42.742;23.266;2024-01-25T14:04:45;95642.94;;;8.12;73.26
10652;BME280;5374;42.742;23.266;2024-01-25T14:07:32;95696.69;;;8.36;74.04
10652;BME280;5374;42.742;23.266;2024-01-25T14:10:19;95697.44;;;8.24;74.76
10652;BME280;5374;42.742;23.266;2024-01-25T14:34:00;95651.63;;;7.47;77.74
10652;BME280;5374;42.742;23.266;2024-01-25T14:36:49;95716.19;;;7.81;77.74
10652;BME280;5374;42.742;23.266;2024-01-25T14:57:57;95655.66;;;7.20;77.80
10652;BME280;5374;42.742;23.266;2024-01-25T15:00:56;95652.56;;;7.23;77.67
10652;BME280;5374;42.742;23.266;2024-01-25T15:07:42;95636.31;;;7.08;78.61
10652;BME280;5374;42.742;23.266;2024-01-25T15:10:31;95695.50;;;7.48;79.22
10652;BME280;5374;42.742;23.266;2024-01-25T15:13:20;95665.19;;;7.21;79.86
10652;BME280;5374;42.742;23.266;2024-01-25T15:16:20;95702.41;;;7.49;80.39
10652;BME280;5374;42.742;23.266;2024-01-25T15:19:51;95711.81;;;7.45;80.57
10652;BME280;5374;42.742;23.266;2024-01-25T15:59:37;95672.84;;;6.93;84.19
10652;BME280;5374;42.742;23.266;2024-01-25T16:08:29;95719.53;;;7.29;85.19
10652;BME280;5374;42.742;23.266;2024-01-25T16:11:16;95676.66;;;6.97;85.74
10652;BME280;5374;42.742;23.266;2024-01-25T16:14:03;95676.66;;;6.97;86.54
10652;BME280;5374;42.742;23.266;2024-01-25T16:16:52;95721.00;;;7.25;87.18
10652;BME280;5374;42.742;23.266;2024-01-25T16:19:39;95726.66;;;7.28;86.95
10652;BME280;5374;42.742;23.266;2024-01-25T16:22:26;95724.00;;;7.28;87.26
10652;BME280;5374;42.742;23.266;2024-01-25T16:25:14;95734.78;;;7.27;87.12
10652;BME280;5374;42.742;23.266;2024-01-25T16:28:02;95742.81;;;7.20;88.42
10652;BME280;5374;42.742;23.266;2024-01-25T16:30:50;95745.09;;;7.16;88.65
10652;BME280;5374;42.742;23.266;2024-01-25T16:58:57;95713.38;;;6.37;97.55
10652;BME280;5374;42.742;23.266;2024-01-25T17:01:46;95717.13;;;6.29;98.72
10652;BME280;5374;42.742;23.266;2024-01-25T17:09:38;95759.31;;;6.29;100.00
10652;BME280;5374;42.742;23.266;2024-01-25T17:12:25;95749.63;;;6.23;100.00
10652;BME280;5374;42.742;23.266;2024-01-25T17:15:15;95711.25;;;6.02;100.00
10652;BME280;5374;42.742;23.266;2024-01-25T17:18:03;95780.69;;;6.46;100.00
10652;BME280;5374;42.742;23.266;2024-01-25T17:20:50;95688.84;;;5.87;100.00
10652;BME280;5374;42.742;23.266;2024-01-25T17:23:39;95737.97;;;6.06;100.00
10652;BME280;5374;42.742;23.266;2024-01-25T17:26:28;95694.00;;;5.68;100.00
10652;BME280;5374;42.742;23.266;2024-01-25T17:29:15;95802.91;;;6.32;100.00
10652;BME280;5374;42.742;23.266;2024-01-25T17:32:04;95816.84;;;6.39;100.00
10652;BME280;5374;42.742;23.266;2024-01-25T17:34:54;95817.56;;;6.21;100.00
10652;BME280;5374;42.742;23.266;2024-01-25T17:42:48;95802.84;;;6.38;100.00
10652;BME280;5374;42.742;23.266;2024-01-25T19:31:48;95772.41;;;6.11;94.25
10652;BME280;5374;42.742;23.266;2024-01-25T19:34:37;95763.13;;;6.08;94.50
10652;BME280;5374;42.742;23.266;2024-01-25T19:37:24;95715.44;;;5.78;95.08
10652;BME280;5374;42.742;23.266;2024-01-25T19:40:11;95692.72;;;5.46;95.84
10652;BME280;5374;42.742;23.266;2024-01-25T19:42:58;95802.09;;;6.00;96.60
10652;BME280;5374;42.742;23.266;2024-01-25T19:45:46;95770.69;;;5.92;96.67
10652;BME280;5374;42.742;23.266;2024-01-25T19:48:34;95735.41;;;5.61;96.66
10652;BME280;5374;42.742;23.266;2024-01-25T19:51:21;95742.69;;;5.59;96.61
10652;BME280;5374;42.742;23.266;2024-01-25T19:54:08;95764.75;;;5.65;97.57
10652;BME280;5374;42.742;23.266;2024-01-25T19:56:56;95738.06;;;5.55;97.66
10652;BME280;5374;42.742;23.266;2024-01-25T19:59:44;95758.03;;;5.69;97.49
10652;BME280;5374;42.742;23.266;2024-01-25T20:02:32;95726.13;;;5.52;98.36
10652;BME280;5374;42.742;23.266;2024-01-25T20:05:21;95728.16;;;5.43;99.14
10652;BME280;5374;42.742;23.266;2024-01-25T20:08:10;95804.41;;;5.76;98.84
10652;BME280;5374;42.742;23.266;2024-01-25T20:10:58;95817.56;;;5.83;99.24
10652;BME280;5374;42.742;23.266;2024-01-25T20:13:46;95750.41;;;5.54;99.70
10652;BME280;5374;42.742;23.266;2024-01-25T20:16:35;95786.19;;;5.75;100.00
10652;BME280;5374;42.742;23.266;2024-01-25T20:19:23;95789.66;;;5.69;100.00
10652;BME280;5374;42.742;23.266;2024-01-25T20:22:16;95803.41;;;5.71;100.00
10652;BME280;5374;42.742;23.266;2024-01-25T20:25:04;95772.09;;;5.49;100.00
10652;BME280;5374;42.742;23.266;2024-01-25T20:27:53;95826.69;;;5.80;100.00
10652;BME280;5374;42.742;23.266;2024-01-25T20:30:43;95753.34;;;5.39;100.00
10652;BME280;5374;42.742;23.266;2024-01-25T20:33:31;95833.34;;;5.90;100.00
10652;BME280;5374;42.742;23.266;2024-01-25T20:36:23;95787.94;;;5.43;100.00
10652;BME280;5374;42.742;23.266;2024-01-25T20:39:17;95712.94;;;5.07;100.00
10652;BME280;5374;42.742;23.266;2024-01-25T20:42:05;95838.59;;;5.96;100.00
10652;BME280;5374;42.742;23.266;2024-01-25T20:45:02;95770.25;;;5.57;99.12
10652;BME280;5374;42.742;23.266;2024-01-25T20:47:54;95778.91;;;5.70;98.15
10652;BME280;5374;42.742;23.266;2024-01-25T20:50:52;95830.88;;;6.01;97.58
10652;BME280;5374;42.742;23.266;2024-01-25T21:06:55;95794.88;;;5.82;91.75
10652;BME280;5374;42.742;23.266;2024-01-25T21:09:43;95707.19;;;5.30;90.64
10652;BME280;5374;42.742;23.266;2024-01-25T21:44:50;95829.44;;;5.54;89.63
10652;BME280;5374;42.742;23.266;2024-01-25T21:47:37;95799.34;;;5.30;89.78
10652;BME280;5374;42.742;23.266;2024-01-25T21:50:24;95841.19;;;5.52;89.98
10652;BME280;5374;42.742;23.266;2024-01-25T21:53:12;95830.31;;;5.35;89.37
10652;BME280;5374;42.742;23.266;2024-01-25T21:56:06;95717.13;;;4.57;89.59
10652;BME280;5374;42.742;23.266;2024-01-25T21:59:08;95729.22;;;4.78;89.84
10652;BME280;5374;42.742;23.266;2024-01-25T22:02:05;95807.91;;;5.06;90.27
10652;BME280;5374;42.742;23.266;2024-01-25T22:07:33;95839.47;;;5.19;91.05
10652;BME280;5374;42.742;23.266;2024-01-25T22:10:27;95781.44;;;4.88;91.20
10652;BME280;5374;42.742;23.266;2024-01-25T22:13:15;95718.97;;;4.30;91.63
10652;BME280;5374;42.742;23.266;2024-01-25T22:16:04;95753.75;;;4.65;91.28
10652;BME280;5374;42.742;23.266;2024-01-25T22:18:53;95694.94;;;4.13;91.01
10652;BME280;5374;42.742;23.266;2024-01-25T22:21:42;95791.75;;;4.82;90.29
10652;BME280;5374;42.742;23.266;2024-01-25T22:24:29;95747.91;;;4.50;91.08
10652;BME280;5374;42.742;23.266;2024-01-25T22:27:18;95721.59;;;4.30;91.05
10652;BME280;5374;42.742;23.266;2024-01-25T22:30:09;95817.84;;;4.84;91.62
10652;BME280;5374;42.742;23.266;2024-01-25T22:32:56;95810.16;;;4.89;91.64
10652;BME280;5374;42.742;23.266;2024-01-25T22:35:46;95849.03;;;4.87;93.36
10652;BME280;5374;42.742;23.266;2024-01-25T22:38:33;95806.75;;;4.49;92.96
10652;BME280;5374;42.742;23.266;2024-01-25T22:41:20;95812.63;;;4.71;92.88
10652;BME280;5374;42.742;23.266;2024-01-25T22:44:09;95777.44;;;4.39;93.16
10652;BME280;5374;42.742;23.266;2024-01-25T22:46:56;95836.66;;;4.81;93.36
10652;BME280;5374;42.742;23.266;2024-01-25T22:49:44;95856.91;;;4.94;92.69
10652;BME280;5374;42.742;23.266;2024-01-25T22:52:32;95783.50;;;4.46;92.43
10652;BME280;5374;42.742;23.266;2024-01-25T22:55:21;95845.00;;;4.71;92.95
10652;BME280;5374;42.742;23.266;2024-01-25T22:58:08;95858.53;;;4.88;93.29
10652;BME280;5374;42.742;23.266;2024-01-25T23:00:55;95766.91;;;4.19;93.50
10652;BME280;5374;42.742;23.266;2024-01-25T23:03:42;95806.56;;;4.51;93.77
10652;BME280;5374;42.742;23.266;2024-01-25T23:06:30;95762.47;;;4.26;93.84
10652;BME280;5374;42.742;23.266;2024-01-25T23:09:19;95767.31;;;4.29;93.29
10652;BME280;5374;42.742;23.266;2024-01-25T23:12:07;95811.81;;;4.51;93.15
10652;BME280;5374;42.742;23.266;2024-01-25T23:14:54;95814.22;;;4.59;93.12
10652;BME280;5374;42.742;23.266;2024-01-25T23:17:42;95838.13;;;4.70;93.45
10652;BME280;5374;42.742;23.266;2024-01-25T23:20:29;95792.59;;;4.24;92.53
10652;BME280;5374;42.742;23.266;2024-01-25T23:23:16;95816.25;;;4.63;91.80
10652;BME280;5374;42.742;23.266;2024-01-25T23:26:06;95845.00;;;4.71;92.28
10652;BME280;5374;42.742;23.266;2024-01-25T23:28:53;95769.72;;;4.11;91.64
10652;BME280;5374;42.742;23.266;2024-01-25T23:31:40;95836.47;;;4.76;91.29
10652;BME280;5374;42.742;23.266;2024-01-25T23:34:27;95800.47;;;4.43;90.79
10652;BME280;5374;42.742;23.266;2024-01-25T23:37:15;95789.53;;;4.33;90.86
10652;BME280;5374;42.742;23.266;2024-01-25T23:40:05;95834.25;;;4.66;91.80
10652;BME280;5374;42.742;23.266;2024-01-25T23:42:54;95798.84;;;4.36;91.61
10652;BME280;5374;42.742;23.266;2024-01-25T23:45:42;95804.34;;;4.47;91.04
10652;BME280;5374;42.742;23.266;2024-01-25T23:48:29;95752.75;;;4.20;90.55
10652;BME280;5374;42.742;23.266;2024-01-25T23:51:17;95796.81;;;4.31;91.00
10652;BME280;5374;42.742;23.266;2024-01-25T23:54:04;95775.78;;;4.31;90.41
10652;BME280;5374;42.742;23.266;2024-01-25T23:56:52;95840.34;;;4.73;91.09
10652;BME280;5374;42.742;23.266;2024-01-25T23:59:41;95766.31;;;4.17;91.08
